sensor_id;sensor_type;location;lat;lon;timestamp;temperature;humidity
11583;DHT22;34299;50.820;4.548;2024-03-22T00:02:09;11.90;99.90
11583;DHT22;34299;50.820;4.548;2024-03-22T00:04:36;11.90;99.90
11583;DHT22;34299;50.820;4.548;2024-03-22T00:07:02;11.90;99.90
11583;DHT22;34299;50.820;4.548;2024-03-22T00:09:29;12.00;99.90
11583;DHT22;34299;50.820;4.548;2024-03-22T00:11:55;11.90;99.90
11583;DHT22;34299;50.820;4.548;2024-03-22T00:14:22;12.00;99.90
11583;DHT22;34299;50.820;4.548;2024-03-22T00:16:49;12.00;99.90
11583;DHT22;34299;50.820;4.548;2024-03-22T00:19:16;11.90;99.90
11583;DHT22;34299;50.820;4.548;2024-03-22T00:21:42;12.10;99.90
11583;DHT22;34299;50.820;4.548;2024-03-22T00:24:09;12.00;99.90
11583;DHT22;34299;50.820;4.548;2024-03-22T00:26:35;12.10;99.90
11583;DHT22;34299;50.820;4.548;2024-03-22T00:29:02;12.00;99.90
11583;DHT22;34299;50.820;4.548;2024-03-22T00:31:28;12.00;99.90
11583;DHT22;34299;50.820;4.548;2024-03-22T00:33:56;12.00;99.90
11583;DHT22;34299;50.820;4.548;2024-03-22T00:36:22;12.00;99.90
11583;DHT22;34299;50.820;4.548;2024-03-22T00:38:49;12.10;99.90
11583;DHT22;34299;50.820;4.548;2024-03-22T00:41:15;12.10;99.90
11583;DHT22;34299;50.820;4.548;2024-03-22T00:43:42;12.10;99.90
11583;DHT22;34299;50.820;4.548;2024-03-22T00:46:07;12.10;99.90
11583;DHT22;34299;50.820;4.548;2024-03-22T00:48:34;12.10;99.90
11583;DHT22;34299;50.820;4.548;2024-03-22T00:51:02;12.10;99.90
11583;DHT22;34299;50.820;4.548;2024-03-22T00:53:29;12.10;99.90
11583;DHT22;34299;50.820;4.548;2024-03-22T00:55:55;12.10;99.90
11583;DHT22;34299;50.820;4.548;2024-03-22T00:58:25;12.30;99.90
11583;DHT22;34299;50.820;4.548;2024-03-22T01:00:51;12.30;99.90
11583;DHT22;34299;50.820;4.548;2024-03-22T01:03:18;12.30;99.90
11583;DHT22;34299;50.820;4.548;2024-03-22T01:05:44;12.20;99.90
11583;DHT22;34299;50.820;4.548;2024-03-22T01:08:12;12.20;99.90
11583;DHT22;34299;50.820;4.548;2024-03-22T01:10:38;12.20;99.90
11583;DHT22;34299;50.820;4.548;2024-03-22T01:13:05;12.20;99.90
11583;DHT22;34299;50.820;4.548;2024-03-22T01:15:31;12.20;99.90
11583;DHT22;34299;50.820;4.548;2024-03-22T01:17:58;12.30;99.90
11583;DHT22;34299;50.820;4.548;2024-03-22T01:20:24;12.30;99.90
11583;DHT22;34299;50.820;4.548;2024-03-22T01:22:51;12.20;99.90
11583;DHT22;34299;50.820;4.548;2024-03-22T01:25:18;12.20;99.90
11583;DHT22;34299;50.820;4.548;2024-03-22T01:27:45;12.20;99.90
11583;DHT22;34299;50.820;4.548;2024-03-22T01:30:11;12.10;99.90
11583;DHT22;34299;50.820;4.548;2024-03-22T01:32:38;12.10;99.90
11583;DHT22;34299;50.820;4.548;2024-03-22T01:35:05;12.20;99.90
11583;DHT22;34299;50.820;4.548;2024-03-22T01:37:32;12.20;99.90
11583;DHT22;34299;50.820;4.548;2024-03-22T01:39:57;12.10;99.90
11583;DHT22;34299;50.820;4.548;2024-03-22T01:42:26;12.10;99.90
11583;DHT22;34299;50.820;4.548;2024-03-22T01:44:52;12.10;99.90
11583;DHT22;34299;50.820;4.548;2024-03-22T01:47:19;12.10;99.90
11583;DHT22;34299;50.820;4.548;2024-03-22T01:49:44;12.10;99.90
11583;DHT22;34299;50.820;4.548;2024-03-22T01:52:11;12.00;99.90
11583;DHT22;34299;50.820;4.548;2024-03-22T01:54:37;12.00;99.90
11583;DHT22;34299;50.820;4.548;2024-03-22T01:57:05;11.90;99.90
11583;DHT22;34299;50.820;4.548;2024-03-22T01:59:32;11.90;99.90
11583;DHT22;34299;50.820;4.548;2024-03-22T02:02:00;11.80;99.90
11583;DHT22;34299;50.820;4.548;2024-03-22T02:04:26;11.70;99.90
11583;DHT22;34299;50.820;4.548;2024-03-22T02:06:53;11.80;99.90
11583;DHT22;34299;50.820;4.548;2024-03-22T02:09:18;12.10;99.90
11583;DHT22;34299;50.820;4.548;2024-03-22T02:11:46;11.80;99.90
11583;DHT22;34299;50.820;4.548;2024-03-22T02:14:12;11.70;99.90
11583;DHT22;34299;50.820;4.548;2024-03-22T02:16:41;11.40;99.90
11583;DHT22;34299;50.820;4.548;2024-03-22T02:19:07;11.60;99.90
11583;DHT22;34299;50.820;4.548;2024-03-22T02:21:34;11.30;99.90
11583;DHT22;34299;50.820;4.548;2024-03-22T02:24:01;11.50;99.90
11583;DHT22;34299;50.820;4.548;2024-03-22T02:26:28;11.50;99.90
11583;DHT22;34299;50.820;4.548;2024-03-22T02:28:55;11.50;99.90
11583;DHT22;34299;50.820;4.548;2024-03-22T02:31:24;11.50;99.90
11583;DHT22;34299;50.820;4.548;2024-03-22T02:33:52;11.60;99.90
11583;DHT22;34299;50.820;4.548;2024-03-22T02:36:18;11.60;99.90
11583;DHT22;34299;50.820;4.548;2024-03-22T02:38:45;11.60;99.90
11583;DHT22;34299;50.820;4.548;2024-03-22T02:41:13;11.60;99.90
11583;DHT22;34299;50.820;4.548;2024-03-22T02:43:39;11.60;99.90
11583;DHT22;34299;50.820;4.548;2024-03-22T02:46:06;11.70;99.90
11583;DHT22;34299;50.820;4.548;2024-03-22T02:48:32;11.80;99.90
11583;DHT22;34299;50.820;4.548;2024-03-22T02:50:59;11.70;99.90
11583;DHT22;34299;50.820;4.548;2024-03-22T02:53:25;11.70;99.90
11583;DHT22;34299;50.820;4.548;2024-03-22T02:55:51;11.70;99.90
11583;DHT22;34299;50.820;4.548;2024-03-22T02:58:21;11.70;99.90
11583;DHT22;34299;50.820;4.548;2024-03-22T03:00:48;11.90;99.90
11583;DHT22;34299;50.820;4.548;2024-03-22T03:03:14;11.70;99.90
11583;DHT22;34299;50.820;4.548;2024-03-22T03:05:42;11.60;99.90
11583;DHT22;34299;50.820;4.548;2024-03-22T03:08:08;11.60;99.90
11583;DHT22;34299;50.820;4.548;2024-03-22T03:10:35;11.50;99.90
11583;DHT22;34299;50.820;4.548;2024-03-22T03:13:01;11.60;99.90
11583;DHT22;34299;50.820;4.548;2024-03-22T03:15:29;11.60;99.90
11583;DHT22;34299;50.820;4.548;2024-03-22T03:17:55;11.70;99.90
11583;DHT22;34299;50.820;4.548;2024-03-22T03:20:22;11.70;99.90
11583;DHT22;34299;50.820;4.548;2024-03-22T03:22:48;11.60;99.90
11583;DHT22;34299;50.820;4.548;2024-03-22T03:25:15;11.60;99.90
11583;DHT22;34299;50.820;4.548;2024-03-22T03:27:41;11.60;99.90
11583;DHT22;34299;50.820;4.548;2024-03-22T03:30:08;11.60;99.90
11583;DHT22;34299;50.820;4.548;2024-03-22T03:32:36;11.60;99.90
11583;DHT22;34299;50.820;4.548;2024-03-22T03:35:03;11.50;99.90
11583;DHT22;34299;50.820;4.548;2024-03-22T03:37:29;11.70;99.90
11583;DHT22;34299;50.820;4.548;2024-03-22T03:39:56;11.60;99.90
11583;DHT22;34299;50.820;4.548;2024-03-22T03:42:22;11.60;99.90
11583;DHT22;34299;50.820;4.548;2024-03-22T03:44:49;11.50;99.90
11583;DHT22;34299;50.820;4.548;2024-03-22T03:47:15;11.50;99.90
11583;DHT22;34299;50.820;4.548;2024-03-22T03:49:45;11.70;99.90
11583;DHT22;34299;50.820;4.548;2024-03-22T03:52:11;11.70;99.90
11583;DHT22;34299;50.820;4.548;2024-03-22T03:54:38;11.60;99.90
11583;DHT22;34299;50.820;4.548;2024-03-22T03:57:04;11.70;99.90
11583;DHT22;34299;50.820;4.548;2024-03-22T03:59:31;11.70;99.90
11583;DHT22;34299;50.820;4.548;2024-03-22T04:01:57;11.70;99.90
11583;DHT22;34299;50.820;4.548;2024-03-22T04:04:24;11.70;99.90
11583;DHT22;34299;50.820;4.548;2024-03-22T04:06:51;11.70;99.90
11583;DHT22;34299;50.820;4.548;2024-03-22T04:09:18;11.70;99.90
11583;DHT22;34299;50.820;4.548;2024-03-22T04:11:44;11.70;99.90
11583;DHT22;34299;50.820;4.548;2024-03-22T04:14:11;11.70;99.90
11583;DHT22;34299;50.820;4.548;2024-03-22T04:16:36;11.70;99.90
11583;DHT22;34299;50.820;4.548;2024-03-22T04:19:03;11.70;99.90
11583;DHT22;34299;50.820;4.548;2024-03-22T04:21:29;11.60;99.90
11583;DHT22;34299;50.820;4.548;2024-03-22T04:23:57;11.50;99.90
11583;DHT22;34299;50.820;4.548;2024-03-22T04:26:23;11.70;99.90
11583;DHT22;34299;50.820;4.548;2024-03-22T04:28:50;11.70;99.90
11583;DHT22;34299;50.820;4.548;2024-03-22T04:31:16;11.70;99.90
11583;DHT22;34299;50.820;4.548;2024-03-22T04:33:43;11.90;99.90
11583;DHT22;34299;50.820;4.548;2024-03-22T04:36:09;11.70;99.90
11583;DHT22;34299;50.820;4.548;2024-03-22T04:38:36;11.60;99.90
11583;DHT22;34299;50.820;4.548;2024-03-22T04:41:04;11.60;99.90
11583;DHT22;34299;50.820;4.548;2024-03-22T04:43:31;11.60;99.90
11583;DHT22;34299;50.820;4.548;2024-03-22T04:45:57;11.70;99.90
11583;DHT22;34299;50.820;4.548;2024-03-22T04:48:24;11.70;99.90
11583;DHT22;34299;50.820;4.548;2024-03-22T04:50:51;11.50;99.90
11583;DHT22;34299;50.820;4.548;2024-03-22T04:53:19;11.20;99.90
11583;DHT22;34299;50.820;4.548;2024-03-22T04:55:46;11.50;99.90
11583;DHT22;34299;50.820;4.548;2024-03-22T04:58:16;11.40;99.90
11583;DHT22;34299;50.820;4.548;2024-03-22T05:00:42;11.50;99.90
11583;DHT22;34299;50.820;4.548;2024-03-22T05:03:09;11.40;99.90
11583;DHT22;34299;50.820;4.548;2024-03-22T05:05:37;11.50;99.90
11583;DHT22;34299;50.820;4.548;2024-03-22T05:08:05;11.40;99.90
11583;DHT22;34299;50.820;4.548;2024-03-22T05:10:31;11.40;99.90
11583;DHT22;34299;50.820;4.548;2024-03-22T05:12:58;11.50;99.90
11583;DHT22;34299;50.820;4.548;2024-03-22T05:15:26;11.50;99.90
11583;DHT22;34299;50.820;4.548;2024-03-22T05:17:54;11.30;99.90
11583;DHT22;34299;50.820;4.548;2024-03-22T05:20:19;11.40;99.90
11583;DHT22;34299;50.820;4.548;2024-03-22T05:22:47;11.30;99.90
11583;DHT22;34299;50.820;4.548;2024-03-22T05:25:13;11.30;99.90
11583;DHT22;34299;50.820;4.548;2024-03-22T05:27:41;11.20;99.90
11583;DHT22;34299;50.820;4.548;2024-03-22T05:30:08;11.10;99.90
11583;DHT22;34299;50.820;4.548;2024-03-22T05:32:37;11.20;99.90
11583;DHT22;34299;50.820;4.548;2024-03-22T05:35:03;11.10;99.90
11583;DHT22;34299;50.820;4.548;2024-03-22T05:37:30;11.00;99.90
11583;DHT22;34299;50.820;4.548;2024-03-22T05:39:56;11.10;99.90
11583;DHT22;34299;50.820;4.548;2024-03-22T05:42:23;11.10;99.90
11583;DHT22;34299;50.820;4.548;2024-03-22T05:44:49;11.10;99.90
11583;DHT22;34299;50.820;4.548;2024-03-22T05:47:18;11.20;99.90
11583;DHT22;34299;50.820;4.548;2024-03-22T05:49:46;11.20;99.90
11583;DHT22;34299;50.820;4.548;2024-03-22T05:52:13;11.20;99.90
11583;DHT22;34299;50.820;4.548;2024-03-22T05:54:38;11.10;99.90
11583;DHT22;34299;50.820;4.548;2024-03-22T05:57:06;11.20;99.90
11583;DHT22;34299;50.820;4.548;2024-03-22T05:59:32;11.10;99.90
11583;DHT22;34299;50.820;4.548;2024-03-22T06:02:00;11.10;99.90
11583;DHT22;34299;50.820;4.548;2024-03-22T06:04:26;11.00;99.90
11583;DHT22;34299;50.820;4.548;2024-03-22T06:06:54;11.00;99.90
11583;DHT22;34299;50.820;4.548;2024-03-22T06:09:20;11.10;99.90
11583;DHT22;34299;50.820;4.548;2024-03-22T06:11:59;10.90;99.90
11583;DHT22;34299;50.820;4.548;2024-03-22T06:14:26;10.90;99.90
11583;DHT22;34299;50.820;4.548;2024-03-22T06:51:10;10.90;99.90
11583;DHT22;34299;50.820;4.548;2024-03-22T06:53:36;10.20;99.90
11583;DHT22;34299;50.820;4.548;2024-03-22T06:56:04;10.10;99.90
11583;DHT22;34299;50.820;4.548;2024-03-22T06:58:31;10.10;99.90
11583;DHT22;34299;50.820;4.548;2024-03-22T07:00:58;10.00;99.90
11583;DHT22;34299;50.820;4.548;2024-03-22T07:03:24;10.20;99.90
11583;DHT22;34299;50.820;4.548;2024-03-22T07:05:51;10.00;99.90
11583;DHT22;34299;50.820;4.548;2024-03-22T07:08:17;10.00;99.90
11583;DHT22;34299;50.820;4.548;2024-03-22T07:10:44;10.00;99.90
11583;DHT22;34299;50.820;4.548;2024-03-22T07:13:11;10.00;99.90
11583;DHT22;34299;50.820;4.548;2024-03-22T07:15:39;10.00;99.90
11583;DHT22;34299;50.820;4.548;2024-03-22T07:18:05;10.00;99.90
11583;DHT22;34299;50.820;4.548;2024-03-22T07:20:32;9.90;99.90
11583;DHT22;34299;50.820;4.548;2024-03-22T07:22:57;9.80;99.90
11583;DHT22;34299;50.820;4.548;2024-03-22T07:25:24;9.90;99.90
11583;DHT22;34299;50.820;4.548;2024-03-22T07:27:50;9.90;99.90
11583;DHT22;34299;50.820;4.548;2024-03-22T07:30:17;9.90;99.90
11583;DHT22;34299;50.820;4.548;2024-03-22T07:32:45;10.00;99.90
11583;DHT22;34299;50.820;4.548;2024-03-22T07:35:13;10.10;99.90
11583;DHT22;34299;50.820;4.548;2024-03-22T07:37:39;10.00;99.90
11583;DHT22;34299;50.820;4.548;2024-03-22T07:40:06;10.00;99.90
11583;DHT22;34299;50.820;4.548;2024-03-22T07:42:32;10.00;99.90
11583;DHT22;34299;50.820;4.548;2024-03-22T07:44:59;10.20;99.90
11583;DHT22;34299;50.820;4.548;2024-03-22T07:47:25;10.00;99.90
11583;DHT22;34299;50.820;4.548;2024-03-22T07:49:54;10.00;99.90
11583;DHT22;34299;50.820;4.548;2024-03-22T07:52:20;10.20;99.90
11583;DHT22;34299;50.820;4.548;2024-03-22T07:54:47;10.40;99.90
11583;DHT22;34299;50.820;4.548;2024-03-22T07:57:12;10.20;99.90
11583;DHT22;34299;50.820;4.548;2024-03-22T07:59:39;9.90;99.90
11583;DHT22;34299;50.820;4.548;2024-03-22T08:02:05;10.20;99.90
11583;DHT22;34299;50.820;4.548;2024-03-22T08:04:32;10.10;99.90
11583;DHT22;34299;50.820;4.548;2024-03-22T08:07:00;10.10;99.90
11583;DHT22;34299;50.820;4.548;2024-03-22T08:09:26;10.20;99.90
11583;DHT22;34299;50.820;4.548;2024-03-22T08:11:52;10.20;99.90
11583;DHT22;34299;50.820;4.548;2024-03-22T08:14:19;10.30;99.90
11583;DHT22;34299;50.820;4.548;2024-03-22T08:16:45;10.10;99.90
11583;DHT22;34299;50.820;4.548;2024-03-22T08:19:12;10.30;99.90
11583;DHT22;34299;50.820;4.548;2024-03-22T08:21:38;10.30;99.90
11583;DHT22;34299;50.820;4.548;2024-03-22T08:24:07;10.20;99.90
11583;DHT22;34299;50.820;4.548;2024-03-22T08:26:33;10.20;99.90
11583;DHT22;34299;50.820;4.548;2024-03-22T08:29:00;10.30;99.90
11583;DHT22;34299;50.820;4.548;2024-03-22T08:31:26;10.30;99.90
11583;DHT22;34299;50.820;4.548;2024-03-22T08:33:54;10.30;99.90
11583;DHT22;34299;50.820;4.548;2024-03-22T08:36:21;10.20;99.90
11583;DHT22;34299;50.820;4.548;2024-03-22T08:38:49;10.30;99.90
11583;DHT22;34299;50.820;4.548;2024-03-22T08:41:16;10.40;99.90
11583;DHT22;34299;50.820;4.548;2024-03-22T08:43:43;10.30;99.90
11583;DHT22;34299;50.820;4.548;2024-03-22T08:46:11;10.20;99.90
11583;DHT22;34299;50.820;4.548;2024-03-22T08:48:37;10.50;99.90
11583;DHT22;34299;50.820;4.548;2024-03-22T08:51:03;10.30;99.90
11583;DHT22;34299;50.820;4.548;2024-03-22T08:53:30;10.20;99.90
11583;DHT22;34299;50.820;4.548;2024-03-22T08:55:56;10.30;99.90
11583;DHT22;34299;50.820;4.548;2024-03-22T08:58:25;10.40;99.90
11583;DHT22;34299;50.820;4.548;2024-03-22T09:00:51;10.30;99.90
11583;DHT22;34299;50.820;4.548;2024-03-22T09:03:19;10.60;99.90
11583;DHT22;34299;50.820;4.548;2024-03-22T09:05:46;10.50;99.90
11583;DHT22;34299;50.820;4.548;2024-03-22T09:08:13;10.80;99.90
11583;DHT22;34299;50.820;4.548;2024-03-22T09:10:41;10.90;99.90
11583;DHT22;34299;50.820;4.548;2024-03-22T09:13:08;11.00;99.90
11583;DHT22;34299;50.820;4.548;2024-03-22T09:15:39;11.00;99.90
11583;DHT22;34299;50.820;4.548;2024-03-22T09:18:06;10.90;99.90
11583;DHT22;34299;50.820;4.548;2024-03-22T09:20:32;11.00;99.90
11583;DHT22;34299;50.820;4.548;2024-03-22T09:22:59;11.10;99.90
11583;DHT22;34299;50.820;4.548;2024-03-22T09:25:25;11.20;99.90
11583;DHT22;34299;50.820;4.548;2024-03-22T09:27:52;10.70;99.90
11583;DHT22;34299;50.820;4.548;2024-03-22T09:30:18;11.00;99.90
11583;DHT22;34299;50.820;4.548;2024-03-22T09:32:46;11.40;99.90
11583;DHT22;34299;50.820;4.548;2024-03-22T09:35:12;11.30;99.90
11583;DHT22;34299;50.820;4.548;2024-03-22T09:37:40;11.20;99.90
11583;DHT22;34299;50.820;4.548;2024-03-22T09:40:07;11.40;99.90
11583;DHT22;34299;50.820;4.548;2024-03-22T09:42:38;11.40;99.90
11583;DHT22;34299;50.820;4.548;2024-03-22T09:45:08;11.50;99.90
11583;DHT22;34299;50.820;4.548;2024-03-22T09:47:36;11.30;99.90
11583;DHT22;34299;50.820;4.548;2024-03-22T09:50:07;11.20;99.90
11583;DHT22;34299;50.820;4.548;2024-03-22T09:52:35;11.20;99.90
11583;DHT22;34299;50.820;4.548;2024-03-22T09:55:04;11.50;99.90
11583;DHT22;34299;50.820;4.548;2024-03-22T09:57:32;11.60;99.90
11583;DHT22;34299;50.820;4.548;2024-03-22T09:59:59;11.70;99.90
11583;DHT22;34299;50.820;4.548;2024-03-22T10:02:27;11.40;99.90
11583;DHT22;34299;50.820;4.548;2024-03-22T10:04:53;11.60;99.90
11583;DHT22;34299;50.820;4.548;2024-03-22T10:07:21;11.90;99.90
11583;DHT22;34299;50.820;4.548;2024-03-22T10:09:47;12.10;99.90
11583;DHT22;34299;50.820;4.548;2024-03-22T10:12:16;12.10;99.90
11583;DHT22;34299;50.820;4.548;2024-03-22T10:14:43;11.90;99.90
11583;DHT22;34299;50.820;4.548;2024-03-22T10:17:10;12.00;99.90
11583;DHT22;34299;50.820;4.548;2024-03-22T10:19:36;11.90;99.90
11583;DHT22;34299;50.820;4.548;2024-03-22T10:22:06;11.90;99.90
11583;DHT22;34299;50.820;4.548;2024-03-22T10:24:33;11.70;99.90
11583;DHT22;34299;50.820;4.548;2024-03-22T10:27:00;11.50;99.90
11583;DHT22;34299;50.820;4.548;2024-03-22T10:29:26;11.70;99.90
11583;DHT22;34299;50.820;4.548;2024-03-22T10:31:55;11.60;99.90
11583;DHT22;34299;50.820;4.548;2024-03-22T10:34:22;11.50;99.90
11583;DHT22;34299;50.820;4.548;2024-03-22T10:36:51;11.50;99.90
11583;DHT22;34299;50.820;4.548;2024-03-22T10:39:17;11.50;99.90
11583;DHT22;34299;50.820;4.548;2024-03-22T10:41:46;11.70;99.90
11583;DHT22;34299;50.820;4.548;2024-03-22T10:44:13;11.70;99.90
11583;DHT22;34299;50.820;4.548;2024-03-22T10:46:44;11.70;99.90
11583;DHT22;34299;50.820;4.548;2024-03-22T10:49:15;11.70;99.90
11583;DHT22;34299;50.820;4.548;2024-03-22T10:51:43;11.90;99.90
11583;DHT22;34299;50.820;4.548;2024-03-22T10:54:10;11.70;99.90
11583;DHT22;34299;50.820;4.548;2024-03-22T10:56:40;11.60;99.90
11583;DHT22;34299;50.820;4.548;2024-03-22T10:59:08;11.60;99.90
11583;DHT22;34299;50.820;4.548;2024-03-22T11:01:35;11.60;99.90
11583;DHT22;34299;50.820;4.548;2024-03-22T11:04:03;11.70;99.90
11583;DHT22;34299;50.820;4.548;2024-03-22T11:06:31;11.80;99.90
11583;DHT22;34299;50.820;4.548;2024-03-22T11:08:59;12.00;99.90
11583;DHT22;34299;50.820;4.548;2024-03-22T11:11:28;11.70;99.90
11583;DHT22;34299;50.820;4.548;2024-03-22T11:13:54;12.00;99.90
11583;DHT22;34299;50.820;4.548;2024-03-22T11:16:24;11.90;99.90
11583;DHT22;34299;50.820;4.548;2024-03-22T11:18:50;11.90;99.90
11583;DHT22;34299;50.820;4.548;2024-03-22T11:21:17;11.80;99.90
11583;DHT22;34299;50.820;4.548;2024-03-22T11:23:45;11.80;99.90
11583;DHT22;34299;50.820;4.548;2024-03-22T11:26:12;11.80;99.90
11583;DHT22;34299;50.820;4.548;2024-03-22T11:28:38;12.20;99.90
11583;DHT22;34299;50.820;4.548;2024-03-22T11:31:05;11.80;99.90
11583;DHT22;34299;50.820;4.548;2024-03-22T11:33:33;11.80;99.90
11583;DHT22;34299;50.820;4.548;2024-03-22T11:36:03;12.10;99.90
11583;DHT22;34299;50.820;4.548;2024-03-22T11:38:30;11.80;99.90
11583;DHT22;34299;50.820;4.548;2024-03-22T11:40:58;11.70;99.90
11583;DHT22;34299;50.820;4.548;2024-03-22T11:43:26;11.80;99.90
11583;DHT22;34299;50.820;4.548;2024-03-22T11:45:54;11.90;99.90
11583;DHT22;34299;50.820;4.548;2024-03-22T11:48:20;12.20;99.90
11583;DHT22;34299;50.820;4.548;2024-03-22T11:50:49;12.20;99.90
11583;DHT22;34299;50.820;4.548;2024-03-22T11:53:16;12.20;99.90
11583;DHT22;34299;50.820;4.548;2024-03-22T11:55:43;12.20;99.90
11583;DHT22;34299;50.820;4.548;2024-03-22T11:58:09;12.10;99.90
11583;DHT22;34299;50.820;4.548;2024-03-22T12:00:36;12.10;99.90
11583;DHT22;34299;50.820;4.548;2024-03-22T12:03:04;11.80;99.90
11583;DHT22;34299;50.820;4.548;2024-03-22T12:05:31;11.70;99.90
11583;DHT22;34299;50.820;4.548;2024-03-22T12:07:58;11.80;99.90
11583;DHT22;34299;50.820;4.548;2024-03-22T12:10:25;11.80;99.90
11583;DHT22;34299;50.820;4.548;2024-03-22T12:12:51;11.90;99.90
11583;DHT22;34299;50.820;4.548;2024-03-22T12:15:19;11.90;99.90
11583;DHT22;34299;50.820;4.548;2024-03-22T12:17:45;11.70;99.90
11583;DHT22;34299;50.820;4.548;2024-03-22T12:20:12;11.90;99.90
11583;DHT22;34299;50.820;4.548;2024-03-22T12:22:40;12.00;99.90
11583;DHT22;34299;50.820;4.548;2024-03-22T12:25:09;12.10;99.90
11583;DHT22;34299;50.820;4.548;2024-03-22T12:27:36;12.10;99.90
11583;DHT22;34299;50.820;4.548;2024-03-22T12:30:04;11.80;99.90
11583;DHT22;34299;50.820;4.548;2024-03-22T12:32:31;12.10;99.90
11583;DHT22;34299;50.820;4.548;2024-03-22T12:34:58;12.20;99.90
11583;DHT22;34299;50.820;4.548;2024-03-22T12:37:26;12.20;99.90
11583;DHT22;34299;50.820;4.548;2024-03-22T12:39:53;12.10;99.90
11583;DHT22;34299;50.820;4.548;2024-03-22T12:42:20;12.20;99.90
11583;DHT22;34299;50.820;4.548;2024-03-22T12:44:48;12.10;99.90
11583;DHT22;34299;50.820;4.548;2024-03-22T12:47:15;11.80;99.90
11583;DHT22;34299;50.820;4.548;2024-03-22T12:49:42;12.10;99.90
11583;DHT22;34299;50.820;4.548;2024-03-22T12:52:08;12.00;99.90
11583;DHT22;34299;50.820;4.548;2024-03-22T12:54:36;12.30;99.90
11583;DHT22;34299;50.820;4.548;2024-03-22T12:57:01;12.30;99.90
11583;DHT22;34299;50.820;4.548;2024-03-22T12:59:30;12.50;99.90
11583;DHT22;34299;50.820;4.548;2024-03-22T13:01:56;11.60;99.90
11583;DHT22;34299;50.820;4.548;2024-03-22T13:04:23;12.00;99.90
11583;DHT22;34299;50.820;4.548;2024-03-22T13:06:49;12.00;99.90
11583;DHT22;34299;50.820;4.548;2024-03-22T13:09:16;11.60;99.90
11583;DHT22;34299;50.820;4.548;2024-03-22T13:11:45;11.50;99.90
11583;DHT22;34299;50.820;4.548;2024-03-22T13:14:13;11.40;99.90
11583;DHT22;34299;50.820;4.548;2024-03-22T13:16:40;11.50;99.90
11583;DHT22;34299;50.820;4.548;2024-03-22T13:19:07;11.60;99.90
11583;DHT22;34299;50.820;4.548;2024-03-22T13:21:37;11.50;99.90
11583;DHT22;34299;50.820;4.548;2024-03-22T13:24:04;11.40;99.90
11583;DHT22;34299;50.820;4.548;2024-03-22T13:26:30;11.70;99.90
11583;DHT22;34299;50.820;4.548;2024-03-22T13:28:57;11.60;99.90
11583;DHT22;34299;50.820;4.548;2024-03-22T13:31:23;11.60;99.90
11583;DHT22;34299;50.820;4.548;2024-03-22T13:33:51;11.60;99.90
11583;DHT22;34299;50.820;4.548;2024-03-22T13:36:18;11.60;99.90
11583;DHT22;34299;50.820;4.548;2024-03-22T13:38:45;11.50;99.90
11583;DHT22;34299;50.820;4.548;2024-03-22T13:41:10;11.40;99.90
11583;DHT22;34299;50.820;4.548;2024-03-22T13:43:37;11.50;99.90
11583;DHT22;34299;50.820;4.548;2024-03-22T13:46:05;11.50;99.90
11583;DHT22;34299;50.820;4.548;2024-03-22T13:48:32;11.50;99.90
11583;DHT22;34299;50.820;4.548;2024-03-22T13:51:00;11.60;99.90
11583;DHT22;34299;50.820;4.548;2024-03-22T13:53:27;11.20;99.90
11583;DHT22;34299;50.820;4.548;2024-03-22T13:55:53;11.50;99.90
11583;DHT22;34299;50.820;4.548;2024-03-22T13:58:20;11.40;99.90
11583;DHT22;34299;50.820;4.548;2024-03-22T14:00:46;11.50;99.90
11583;DHT22;34299;50.820;4.548;2024-03-22T14:03:13;11.50;99.90
11583;DHT22;34299;50.820;4.548;2024-03-22T14:05:39;11.60;99.90
11583;DHT22;34299;50.820;4.548;2024-03-22T14:08:07;11.50;99.90
11583;DHT22;34299;50.820;4.548;2024-03-22T14:10:33;11.50;99.90
11583;DHT22;34299;50.820;4.548;2024-03-22T14:13:01;11.40;99.90
11583;DHT22;34299;50.820;4.548;2024-03-22T14:15:27;11.60;99.90
11583;DHT22;34299;50.820;4.548;2024-03-22T14:17:57;11.70;99.90
11583;DHT22;34299;50.820;4.548;2024-03-22T14:20:23;11.40;99.90
11583;DHT22;34299;50.820;4.548;2024-03-22T14:22:50;11.00;99.90
11583;DHT22;34299;50.820;4.548;2024-03-22T14:25:18;11.20;99.90
11583;DHT22;34299;50.820;4.548;2024-03-22T14:27:44;11.40;99.90
11583;DHT22;34299;50.820;4.548;2024-03-22T14:30:12;11.40;99.90
11583;DHT22;34299;50.820;4.548;2024-03-22T14:32:40;11.40;99.90
11583;DHT22;34299;50.820;4.548;2024-03-22T14:35:07;11.40;99.90
11583;DHT22;34299;50.820;4.548;2024-03-22T14:37:34;11.60;99.90
11583;DHT22;34299;50.820;4.548;2024-03-22T14:40:00;11.80;99.90
11583;DHT22;34299;50.820;4.548;2024-03-22T14:42:31;11.80;99.90
11583;DHT22;34299;50.820;4.548;2024-03-22T14:44:59;11.70;99.90
11583;DHT22;34299;50.820;4.548;2024-03-22T14:47:25;11.40;99.90
11583;DHT22;34299;50.820;4.548;2024-03-22T14:49:52;11.30;99.90
11583;DHT22;34299;50.820;4.548;2024-03-22T14:52:18;11.10;99.90
11583;DHT22;34299;50.820;4.548;2024-03-22T14:54:47;11.00;99.90
11583;DHT22;34299;50.820;4.548;2024-03-22T14:57:13;11.00;99.90
11583;DHT22;34299;50.820;4.548;2024-03-22T14:59:41;11.10;99.90
11583;DHT22;34299;50.820;4.548;2024-03-22T15:02:07;11.00;99.90
11583;DHT22;34299;50.820;4.548;2024-03-22T15:04:34;11.00;99.90
11583;DHT22;34299;50.820;4.548;2024-03-22T15:07:00;10.90;99.90
11583;DHT22;34299;50.820;4.548;2024-03-22T15:09:27;11.10;99.90
11583;DHT22;34299;50.820;4.548;2024-03-22T15:11:53;11.20;99.90
11583;DHT22;34299;50.820;4.548;2024-03-22T15:14:24;11.30;99.90
11583;DHT22;34299;50.820;4.548;2024-03-22T15:16:51;11.40;99.90
11583;DHT22;34299;50.820;4.548;2024-03-22T15:19:18;11.40;99.90
11583;DHT22;34299;50.820;4.548;2024-03-22T15:21:44;11.10;99.90
11583;DHT22;34299;50.820;4.548;2024-03-22T15:24:11;11.20;99.90
11583;DHT22;34299;50.820;4.548;2024-03-22T15:26:37;11.20;99.90
11583;DHT22;34299;50.820;4.548;2024-03-22T15:29:04;11.10;99.90
11583;DHT22;34299;50.820;4.548;2024-03-22T16:37:47;11.10;99.90
11583;DHT22;34299;50.820;4.548;2024-03-22T16:40:14;10.00;99.90
11583;DHT22;34299;50.820;4.548;2024-03-22T16:42:46;10.10;99.90
11583;DHT22;34299;50.820;4.548;2024-03-22T19:17:14;10.30;99.90
11583;DHT22;34299;50.820;4.548;2024-03-22T20:30:46;10.10;99.90
